createdAt,value
2022-12-29T00:01:29.914Z,91.01
2022-12-29T00:06:33.427Z,90.94
2022-12-29T00:11:36.632Z,90.91
2022-12-29T00:16:45.788Z,90.97
2022-12-29T00:22:08.035Z,90.93
2022-12-29T00:27:32.349Z,90.92
2022-12-29T00:32:55.926Z,90.90
2022-12-29T00:38:23.716Z,90.83
2022-12-29T00:43:45.768Z,90.75
2022-12-29T00:49:07.500Z,90.63
2022-12-29T00:54:11.126Z,90.61
2022-12-29T00:59:14.532Z,90.59
2022-12-29T01:04:17.835Z,90.61
2022-12-29T01:09:40.709Z,90.62
2022-12-29T01:14:43.917Z,90.67
2022-12-29T01:19:47.843Z,90.69
2022-12-29T01:24:51.358Z,90.73
2022-12-29T01:29:54.581Z,90.89
2022-12-29T01:34:57.670Z,90.92
2022-12-29T01:40:00.984Z,91.01
2022-12-29T01:45:10.624Z,90.96
2022-12-29T01:50:29.740Z,91.06
2022-12-29T01:55:39.279Z,91.14
2022-12-29T02:00:42.460Z,91.30
2022-12-29T02:06:00.855Z,91.29
2022-12-29T02:11:04.575Z,91.12
2022-12-29T02:16:20.192Z,91.21
2022-12-29T02:21:49.902Z,91.16
2022-12-29T02:27:18.403Z,91.33
2022-12-29T02:32:46.693Z,91.48
2022-12-29T02:38:20.645Z,91.62
2022-12-29T02:43:42.670Z,91.58
2022-12-29T02:48:56.020Z,91.66
2022-12-29T02:54:19.196Z,91.68
2022-12-29T02:59:23.571Z,91.95
2022-12-29T03:04:56.645Z,91.95
2022-12-29T03:09:59.740Z,92.22
2022-12-29T03:15:30.291Z,92.33
2022-12-29T03:20:59.510Z,92.23
2022-12-29T03:26:08.210Z,92.07
2022-12-29T03:31:13.667Z,92.05
2022-12-29T03:36:27.871Z,92.13
2022-12-29T03:41:34.342Z,92.10
2022-12-29T03:46:37.720Z,92.11
2022-12-29T03:51:40.975Z,92.18
2022-12-29T03:56:44.195Z,92.21
2022-12-29T04:01:47.773Z,92.15
2022-12-29T04:06:51.112Z,92.22
2022-12-29T04:11:54.114Z,92.17
2022-12-29T04:16:57.337Z,92.01
2022-12-29T04:22:00.743Z,91.99
2022-12-29T04:27:03.944Z,92.01
2022-12-29T04:32:07.357Z,92.00
2022-12-29T04:37:10.769Z,92.06
2022-12-29T04:42:13.996Z,92.17
2022-12-29T04:47:17.599Z,92.08
2022-12-29T04:52:22.141Z,92.18
2022-12-29T04:57:25.339Z,92.33
2022-12-29T05:02:28.968Z,92.24
2022-12-29T05:07:34.578Z,92.26
2022-12-29T05:12:39.374Z,92.22
2022-12-29T05:17:43.498Z,92.27
2022-12-29T05:22:46.815Z,92.27
2022-12-29T05:27:50.225Z,92.23
2022-12-29T05:32:53.531Z,92.12
2022-12-29T05:37:56.852Z,92.10
2022-12-29T05:43:00.173Z,92.07
2022-12-29T05:48:03.571Z,92.02
2022-12-29T05:53:07.085Z,91.91
2022-12-29T05:58:10.907Z,91.83
2022-12-29T06:03:14.297Z,91.83
2022-12-29T06:08:17.728Z,91.83
2022-12-29T06:13:20.942Z,91.83
2022-12-29T06:18:24.351Z,91.78
2022-12-29T06:23:28.379Z,91.69
2022-12-29T06:28:32.100Z,91.67
2022-12-29T06:33:35.715Z,91.66
2022-12-29T06:38:39.029Z,91.61
2022-12-29T06:43:42.243Z,91.59
2022-12-29T06:48:45.342Z,91.45
2022-12-29T06:53:48.594Z,91.37
2022-12-29T06:58:51.880Z,91.18
2022-12-29T07:03:55.065Z,91.07
2022-12-29T07:08:58.632Z,91.06
2022-12-29T07:14:02.206Z,91.18
2022-12-29T07:19:05.816Z,91.32
2022-12-29T07:24:10.255Z,91.39
2022-12-29T07:29:13.773Z,91.37
2022-12-29T07:34:17.298Z,91.37
2022-12-29T07:39:20.398Z,91.36
2022-12-29T07:44:23.599Z,91.36
2022-12-29T07:49:26.812Z,91.35
2022-12-29T07:54:30.119Z,91.31
2022-12-29T07:59:33.955Z,91.27
2022-12-29T08:04:37.149Z,91.12
2022-12-29T08:09:40.356Z,91.02
2022-12-29T08:14:43.668Z,91.03
2022-12-29T08:19:46.695Z,90.94
2022-12-29T08:24:50.183Z,90.97
2022-12-29T08:29:53.603Z,90.76
2022-12-29T08:34:56.940Z,90.52
2022-12-29T08:40:01.256Z,90.36
2022-12-29T08:45:06.236Z,90.19
2022-12-29T08:50:10.120Z,89.92
2022-12-29T08:55:14.355Z,89.76
2022-12-29T09:00:18.226Z,89.67
2022-12-29T09:05:21.788Z,89.39
2022-12-29T09:10:24.796Z,88.76
2022-12-29T09:15:28.072Z,89.31
2022-12-29T09:20:31.331Z,89.01
2022-12-29T09:25:34.876Z,89.11
2022-12-29T09:30:38.678Z,88.84
2022-12-29T09:35:46.574Z,88.01
2022-12-29T09:40:59.547Z,87.10
2022-12-29T09:46:08.891Z,87.51
2022-12-29T09:51:17.086Z,87.34
2022-12-29T09:56:23.283Z,86.98
2022-12-29T10:01:47.739Z,86.51
2022-12-29T10:07:29.685Z,86.68
2022-12-29T10:13:18.152Z,86.62
2022-12-29T10:18:57.300Z,86.57
2022-12-29T10:24:03.583Z,86.59
2022-12-29T10:29:29.112Z,86.63
2022-12-29T10:34:35.642Z,86.66
2022-12-29T10:39:46.637Z,86.22
2022-12-29T10:44:49.893Z,85.66
2022-12-29T10:49:53.220Z,84.84
2022-12-29T10:55:02.155Z,84.67
2022-12-29T11:00:21.772Z,83.88
2022-12-29T11:05:40.768Z,83.40
2022-12-29T11:10:45.472Z,82.83
2022-12-29T11:15:51.253Z,82.89
2022-12-29T11:21:00.528Z,82.82
2022-12-29T11:26:25.339Z,82.82
2022-12-29T11:31:30.893Z,82.75
2022-12-29T11:36:37.097Z,82.94
2022-12-29T11:41:40.655Z,82.96
2022-12-29T11:46:49.766Z,83.36
2022-12-29T11:51:58.544Z,83.28
2022-12-29T11:57:15.972Z,83.17
2022-12-29T12:02:42.149Z,83.34
2022-12-29T12:07:51.987Z,83.30
2022-12-29T12:13:02.371Z,83.58
2022-12-29T12:18:20.319Z,83.67
2022-12-29T12:23:33.150Z,83.97
2022-12-29T12:28:41.377Z,83.92
2022-12-29T12:33:50.938Z,83.88
2022-12-29T12:39:00.648Z,83.60
2022-12-29T12:44:22.883Z,83.67
2022-12-29T12:50:00.462Z,83.62
2022-12-29T12:55:31.935Z,83.66
2022-12-29T13:00:59.829Z,83.60
2022-12-29T13:06:41.015Z,83.60
2022-12-29T13:11:51.907Z,83.88
2022-12-29T13:17:40.168Z,83.96
2022-12-29T13:22:58.037Z,84.45
2022-12-29T13:28:13.315Z,84.75
2022-12-29T13:33:22.914Z,85.26
2022-12-29T13:38:40.417Z,85.56
2022-12-29T13:43:48.141Z,85.82
2022-12-29T13:48:56.670Z,86.05
2022-12-29T13:54:41.545Z,86.11
2022-12-29T13:59:56.017Z,86.15
2022-12-29T14:05:06.305Z,86.13
2022-12-29T14:10:34.687Z,86.00
2022-12-29T14:15:45.957Z,85.78
2022-12-29T14:21:20.275Z,85.45
2022-12-29T14:26:29.989Z,85.49
2022-12-29T14:31:33.885Z,85.27
2022-12-29T14:36:54.932Z,85.16
2022-12-29T14:42:02.354Z,85.10
2022-12-29T14:47:09.707Z,84.95
2022-12-29T14:52:29.856Z,84.64
2022-12-29T14:57:41.664Z,84.74
2022-12-29T15:02:50.465Z,84.62
2022-12-29T15:07:57.888Z,84.57
2022-12-29T15:13:06.454Z,84.38
2022-12-29T15:18:26.405Z,84.15
2022-12-29T15:23:31.815Z,84.12
2022-12-29T15:28:56.216Z,84.21
2022-12-29T15:34:13.824Z,84.07
2022-12-29T15:39:22.399Z,84.03
2022-12-29T15:44:39.007Z,83.97
2022-12-29T15:49:48.869Z,84.04
2022-12-29T15:54:55.153Z,83.91
2022-12-29T15:59:58.774Z,83.86
2022-12-29T16:05:17.147Z,84.03
2022-12-29T16:10:31.817Z,84.18
2022-12-29T16:15:36.558Z,84.09
2022-12-29T16:20:42.722Z,83.91
2022-12-29T16:25:46.766Z,84.09
2022-12-29T16:31:04.433Z,84.14
2022-12-29T16:36:32.334Z,84.26
2022-12-29T16:41:35.706Z,84.29
2022-12-29T16:46:46.999Z,84.33
2022-12-29T16:51:51.848Z,84.41
2022-12-29T16:56:56.489Z,84.50
2022-12-29T17:02:02.609Z,84.63
2022-12-29T17:07:18.854Z,84.76
2022-12-29T17:12:26.593Z,84.80
2022-12-29T17:17:47.211Z,84.70
2022-12-29T17:22:53.595Z,84.69
2022-12-29T17:28:00.973Z,84.62
2022-12-29T17:33:14.799Z,84.66
2022-12-29T17:38:30.121Z,84.75
2022-12-29T17:43:37.054Z,84.54
2022-12-29T17:48:40.559Z,84.54
2022-12-29T17:53:43.869Z,84.49
2022-12-29T17:58:48.186Z,84.48
2022-12-29T18:03:51.456Z,84.31
2022-12-29T18:08:55.336Z,84.10
2022-12-29T18:13:58.860Z,84.05
2022-12-29T18:19:03.090Z,84.11
2022-12-29T18:24:06.898Z,84.11
2022-12-29T18:29:10.023Z,84.42
2022-12-29T18:34:14.681Z,84.63
2022-12-29T18:39:17.764Z,84.69
2022-12-29T18:44:21.891Z,84.77
2022-12-29T18:49:25.928Z,84.91
2022-12-29T18:54:32.416Z,85.14
2022-12-29T18:59:35.818Z,85.23
2022-12-29T19:04:39.378Z,85.46
2022-12-29T19:09:42.850Z,85.82
2022-12-29T19:14:46.371Z,85.88
2022-12-29T19:19:50.088Z,86.17
2022-12-29T19:24:59.593Z,86.39
2022-12-29T19:30:05.280Z,86.66
2022-12-29T19:35:13.795Z,86.77
2022-12-29T19:40:20.787Z,86.94
2022-12-29T19:45:24.871Z,87.27
2022-12-29T19:50:29.817Z,87.40
2022-12-29T19:55:33.535Z,87.53
2022-12-29T20:00:48.489Z,87.44
2022-12-29T20:05:53.723Z,87.67
2022-12-29T20:11:02.751Z,87.91
2022-12-29T20:16:11.468Z,88.13
2022-12-29T20:21:21.459Z,88.18
2022-12-29T20:26:28.317Z,88.25
2022-12-29T20:31:35.615Z,88.41
2022-12-29T20:36:46.798Z,88.25
2022-12-29T20:41:50.457Z,88.25
2022-12-29T20:46:53.812Z,88.31
2022-12-29T20:52:06.296Z,88.40
2022-12-29T20:57:10.273Z,88.62
2022-12-29T21:02:21.087Z,88.91
2022-12-29T21:07:24.725Z,89.18
2022-12-29T21:12:29.761Z,89.36
2022-12-29T21:17:32.973Z,89.66
2022-12-29T21:22:38.143Z,89.63
2022-12-29T21:27:45.126Z,89.92
2022-12-29T21:32:49.256Z,90.10
2022-12-29T21:37:54.121Z,90.08
2022-12-29T21:42:59.390Z,90.22
2022-12-29T21:48:25.047Z,90.17
2022-12-29T21:53:40.998Z,90.24
2022-12-29T21:59:06.230Z,90.26
2022-12-29T22:04:34.625Z,90.27
2022-12-29T22:09:57.082Z,90.22
2022-12-29T22:15:00.297Z,90.40
2022-12-29T22:20:04.216Z,90.05
2022-12-29T22:25:09.680Z,89.71
2022-12-29T22:30:16.378Z,89.84
2022-12-29T22:35:19.681Z,89.91
2022-12-29T22:40:23.300Z,89.81
2022-12-29T22:45:26.813Z,89.53
2022-12-29T22:50:30.021Z,89.30
2022-12-29T22:55:33.738Z,89.13
2022-12-29T23:00:37.870Z,88.97
2022-12-29T23:05:41.487Z,88.93
2022-12-29T23:10:44.805Z,88.85
2022-12-29T23:15:48.693Z,88.92
2022-12-29T23:20:53.369Z,88.83
2022-12-29T23:25:56.983Z,88.85
2022-12-29T23:31:00.189Z,88.88
2022-12-29T23:36:04.321Z,88.75
2022-12-29T23:41:08.267Z,88.82
2022-12-29T23:46:15.217Z,88.95
2022-12-29T23:51:18.859Z,88.91
2022-12-29T23:56:23.504Z,88.93
